createdAt,value
2022-09-06T00:02:23.686Z,22.91
2022-09-06T00:05:10.270Z,22.93
2022-09-06T00:07:57.919Z,22.87
2022-09-06T00:10:43.412Z,22.90
2022-09-06T00:13:28.548Z,22.89
2022-09-06T00:16:19.933Z,22.78
2022-09-06T00:19:05.300Z,22.59
2022-09-06T00:21:50.280Z,22.59
2022-09-06T00:24:35.952Z,22.62
2022-09-06T00:27:21.181Z,22.63
2022-09-06T00:30:07.239Z,22.50
2022-09-06T00:32:53.524Z,22.59
2022-09-06T00:35:38.626Z,22.58
2022-09-06T00:38:23.821Z,22.64
2022-09-06T00:41:11.590Z,22.55
2022-09-06T00:43:57.299Z,22.54
2022-09-06T00:46:46.441Z,22.51
2022-09-06T00:49:35.392Z,22.43
2022-09-06T00:52:20.843Z,22.26
2022-09-06T00:55:06.611Z,22.18
2022-09-06T00:57:52.340Z,22.14
2022-09-06T01:00:37.932Z,22.24
2022-09-06T01:03:24.761Z,22.11
2022-09-06T01:06:16.311Z,22.11
2022-09-06T01:09:23.712Z,22.10
2022-09-06T01:12:25.742Z,22.23
2022-09-06T01:15:48.980Z,22.03
2022-09-06T01:18:58.277Z,21.93
2022-09-06T01:21:55.769Z,22.11
2022-09-06T01:25:02.603Z,22.03
2022-09-06T01:28:18.677Z,21.99
2022-09-06T01:31:22.777Z,21.85
2022-09-06T01:34:08.194Z,21.89
2022-09-06T01:37:10.226Z,21.89
2022-09-06T01:39:55.906Z,21.77
2022-09-06T01:42:43.365Z,21.81
2022-09-06T01:45:43.878Z,21.77
2022-09-06T01:48:55.042Z,21.78
2022-09-06T01:52:14.520Z,21.74
2022-09-06T01:55:24.289Z,21.75
2022-09-06T01:58:25.171Z,21.62
2022-09-06T02:01:30.762Z,21.74
2022-09-06T02:04:42.353Z,21.76
2022-09-06T02:07:30.994Z,21.71
2022-09-06T02:10:25.610Z,21.79
2022-09-06T02:13:13.515Z,21.67
2022-09-06T02:16:02.967Z,21.77
2022-09-06T02:18:54.658Z,21.71
2022-09-06T02:21:44.114Z,21.64
2022-09-06T02:24:33.340Z,21.51
2022-09-06T02:27:18.759Z,21.61
2022-09-06T02:30:05.872Z,21.74
2022-09-06T02:32:58.680Z,21.66
2022-09-06T02:35:46.762Z,21.69
2022-09-06T02:38:34.687Z,21.50
2022-09-06T02:41:22.751Z,21.44
2022-09-06T02:44:07.768Z,21.41
2022-09-06T02:46:56.995Z,21.49
2022-09-06T02:49:42.470Z,21.54
2022-09-06T02:52:27.800Z,21.49
2022-09-06T02:55:13.193Z,21.46
2022-09-06T02:57:58.749Z,21.43
2022-09-06T03:00:44.031Z,21.31
2022-09-06T03:03:28.922Z,21.43
2022-09-06T03:06:14.421Z,21.44
2022-09-06T03:09:00.299Z,20.95
2022-09-06T03:11:45.621Z,20.61
2022-09-06T03:14:31.059Z,20.77
2022-09-06T03:17:16.436Z,20.80
2022-09-06T03:20:01.979Z,20.84
2022-09-06T03:22:47.322Z,20.91
2022-09-06T03:25:32.697Z,20.95
2022-09-06T03:28:19.142Z,21.09
2022-09-06T03:31:04.583Z,21.09
2022-09-06T03:33:49.861Z,21.05
2022-09-06T03:36:34.758Z,21.14
2022-09-06T03:39:20.123Z,21.12
2022-09-06T03:42:05.280Z,21.26
2022-09-06T03:44:50.293Z,21.12
2022-09-06T03:47:35.771Z,21.16
2022-09-06T03:50:21.093Z,21.25
2022-09-06T03:53:06.495Z,21.14
2022-09-06T03:55:53.524Z,21.17
2022-09-06T03:58:38.567Z,21.23
2022-09-06T04:01:24.000Z,21.18
2022-09-06T04:04:09.318Z,21.14
2022-09-06T04:06:54.236Z,21.27
2022-09-06T04:09:39.662Z,21.14
2022-09-06T04:12:25.077Z,21.05
2022-09-06T04:15:10.895Z,21.14
2022-09-06T04:17:56.282Z,21.14
2022-09-06T04:20:41.536Z,21.21
2022-09-06T04:23:28.252Z,21.21
2022-09-06T04:26:13.268Z,21.12
2022-09-06T04:28:58.231Z,21.11
2022-09-06T04:31:43.608Z,21.03
2022-09-06T04:34:29.148Z,20.98
2022-09-06T04:37:14.904Z,20.98
2022-09-06T04:40:00.533Z,20.97
2022-09-06T04:42:45.863Z,21.00
2022-09-06T04:45:30.759Z,21.00
2022-09-06T04:48:16.172Z,21.06
2022-09-06T04:51:01.263Z,21.02
2022-09-06T04:53:46.755Z,21.05
2022-09-06T04:56:32.429Z,20.99
2022-09-06T04:59:17.398Z,21.00
2022-09-06T05:02:03.315Z,20.98
2022-09-06T05:04:48.122Z,21.08
2022-09-06T05:07:33.720Z,20.99
2022-09-06T05:10:19.188Z,20.91
2022-09-06T05:13:04.295Z,20.89
2022-09-06T05:15:49.289Z,20.87
2022-09-06T05:18:35.441Z,20.69
2022-09-06T05:21:20.717Z,20.76
2022-09-06T05:24:06.242Z,20.67
2022-09-06T05:26:51.597Z,20.69
2022-09-06T05:29:36.502Z,20.69
2022-09-06T05:32:21.973Z,20.51
2022-09-06T05:35:07.326Z,20.44
2022-09-06T05:37:52.446Z,20.44
2022-09-06T05:40:37.338Z,20.47
2022-09-06T05:43:22.624Z,20.35
2022-09-06T05:46:09.001Z,20.55
2022-09-06T05:48:56.115Z,20.47
2022-09-06T05:51:41.487Z,20.56
2022-09-06T05:54:26.795Z,20.62
2022-09-06T05:57:12.255Z,20.45
2022-09-06T05:59:57.268Z,20.47
2022-09-06T06:02:42.844Z,20.79
2022-09-06T06:05:28.057Z,20.92
2022-09-06T06:08:13.157Z,20.86
2022-09-06T06:10:59.974Z,20.87
2022-09-06T06:13:45.899Z,20.89
2022-09-06T06:16:31.745Z,21.00
2022-09-06T06:19:17.129Z,21.11
2022-09-06T06:22:02.643Z,20.99
2022-09-06T06:24:47.697Z,20.98
2022-09-06T06:27:32.690Z,20.93
2022-09-06T06:30:18.770Z,20.96
2022-09-06T06:33:04.177Z,21.05
2022-09-06T06:36:00.856Z,21.14
2022-09-06T06:38:46.372Z,21.03
2022-09-06T06:41:32.791Z,21.09
2022-09-06T06:44:17.781Z,21.00
2022-09-06T06:47:02.820Z,21.19
2022-09-06T06:49:48.184Z,21.10
2022-09-06T06:52:33.212Z,21.29
2022-09-06T06:55:18.344Z,21.27
2022-09-06T06:58:03.742Z,21.16
2022-09-06T07:00:49.358Z,21.02
2022-09-06T07:03:34.856Z,21.13
2022-09-06T07:06:21.177Z,21.35
2022-09-06T07:09:06.357Z,21.33
2022-09-06T07:11:52.057Z,21.28
2022-09-06T07:14:37.019Z,21.23
2022-09-06T07:17:22.387Z,21.37
2022-09-06T07:20:15.481Z,21.55
2022-09-06T07:26:14.142Z,21.67
2022-09-06T07:29:02.644Z,21.68
2022-09-06T07:32:17.687Z,21.80
2022-09-06T07:34:53.127Z,21.90
2022-09-06T07:37:38.537Z,21.94
2022-09-06T07:40:24.483Z,21.94
2022-09-06T07:43:09.827Z,21.88
2022-09-06T07:46:13.026Z,21.81
2022-09-06T07:48:58.663Z,21.80
2022-09-06T07:51:44.003Z,21.79
2022-09-06T07:54:31.016Z,21.84
2022-09-06T07:57:16.499Z,21.94
2022-09-06T08:00:04.587Z,22.10
2022-09-06T08:02:49.763Z,22.03
2022-09-06T08:11:45.187Z,23.00
2022-09-06T08:14:30.431Z,23.15
2022-09-06T08:17:15.786Z,23.12
2022-09-06T08:20:02.664Z,22.79
2022-09-06T08:22:47.596Z,22.91
2022-09-06T08:25:32.615Z,22.78
2022-09-06T08:28:17.429Z,22.66
2022-09-06T08:31:11.763Z,22.85
2022-09-06T08:33:58.809Z,22.70
2022-09-06T08:36:44.058Z,22.66
2022-09-06T08:39:29.252Z,22.57
2022-09-06T08:42:14.547Z,22.78
2022-09-06T08:45:01.085Z,23.93
2022-09-06T08:47:46.413Z,24.91
2022-09-06T08:50:32.191Z,25.80
2022-09-06T08:53:19.225Z,25.71
2022-09-06T08:56:29.903Z,26.30
2022-09-06T08:59:15.341Z,26.52
2022-09-06T09:02:13.054Z,26.66
2022-09-06T09:05:02.430Z,26.62
2022-09-06T09:08:04.634Z,26.61
2022-09-06T09:11:05.717Z,26.74
2022-09-06T09:14:00.033Z,26.61
2022-09-06T09:16:45.568Z,26.48
2022-09-06T09:19:30.722Z,26.21
2022-09-06T09:22:18.437Z,26.15
2022-09-06T09:25:07.074Z,25.83
2022-09-06T09:27:54.499Z,25.60
2022-09-06T09:30:54.889Z,25.74
2022-09-06T09:33:39.855Z,25.81
2022-09-06T09:36:25.316Z,26.24
2022-09-06T09:39:11.784Z,26.38
2022-09-06T09:41:56.957Z,26.40
2022-09-06T09:44:45.463Z,26.38
2022-09-06T09:47:32.638Z,26.43
2022-09-06T09:50:34.509Z,26.34
2022-09-06T09:53:23.126Z,26.14
2022-09-06T09:56:08.707Z,26.30
2022-09-06T09:58:56.377Z,26.26
2022-09-06T10:01:41.777Z,26.45
2022-09-06T10:07:26.976Z,26.71
2022-09-06T10:10:22.907Z,26.61
2022-09-06T10:13:18.927Z,26.58
2022-09-06T10:16:03.974Z,26.72
2022-09-06T10:18:49.248Z,26.75
2022-09-06T10:21:34.610Z,26.79
2022-09-06T10:24:29.938Z,26.90
2022-09-06T10:27:25.829Z,27.09
2022-09-06T10:30:11.328Z,27.27
2022-09-06T10:33:08.095Z,27.11
2022-09-06T10:35:58.229Z,27.16
2022-09-06T10:38:54.179Z,27.17
2022-09-06T10:41:58.265Z,27.32
2022-09-06T10:45:18.898Z,27.19
2022-09-06T10:48:21.764Z,27.16
2022-09-06T10:51:22.776Z,27.26
2022-09-06T10:54:16.372Z,27.37
2022-09-06T11:00:16.539Z,27.29
2022-09-06T11:06:22.510Z,27.26
2022-09-06T11:09:21.713Z,27.33
2022-09-06T11:12:22.461Z,27.42
2022-09-06T11:15:10.460Z,27.56
2022-09-06T11:18:09.671Z,27.56
2022-09-06T11:21:19.449Z,27.69
2022-09-06T11:24:11.341Z,27.56
2022-09-06T11:27:34.616Z,27.68
2022-09-06T11:30:19.843Z,27.71
2022-09-06T11:33:13.049Z,27.66
2022-09-06T11:36:16.910Z,27.71
2022-09-06T11:39:04.601Z,27.79
2022-09-06T11:41:49.718Z,27.92
2022-09-06T11:44:57.888Z,28.19
2022-09-06T11:47:46.362Z,28.29
2022-09-06T11:50:53.601Z,28.32
2022-09-06T11:53:48.034Z,28.45
2022-09-06T11:56:42.740Z,28.57
2022-09-06T11:59:43.745Z,28.66
2022-09-06T12:02:38.529Z,28.63
2022-09-06T12:05:25.398Z,29.00
2022-09-06T12:08:10.279Z,30.08
2022-09-06T12:11:43.862Z,30.74
2022-09-06T12:14:43.918Z,31.25
2022-09-06T12:17:46.210Z,31.96
2022-09-06T12:20:53.630Z,30.93
2022-09-06T12:23:38.493Z,31.38
2022-09-06T12:26:55.049Z,32.41
2022-09-06T12:29:50.364Z,31.47
2022-09-06T12:32:48.152Z,31.67
2022-09-06T12:38:40.043Z,33.10
2022-09-06T12:41:28.757Z,32.85
2022-09-06T12:44:16.112Z,32.98
2022-09-06T12:47:31.229Z,33.40
2022-09-06T12:50:21.883Z,33.34
2022-09-06T12:53:23.396Z,32.98
2022-09-06T12:56:11.706Z,32.93
2022-09-06T12:59:22.924Z,32.31
2022-09-06T13:02:13.833Z,32.77
2022-09-06T13:05:11.121Z,31.05
2022-09-06T13:08:00.022Z,30.06
2022-09-06T13:10:47.395Z,29.40
2022-09-06T13:13:32.776Z,29.54
2022-09-06T13:16:36.926Z,29.47
2022-09-06T13:19:32.909Z,30.08
2022-09-06T13:22:39.303Z,30.33
2022-09-06T13:25:26.164Z,30.50
2022-09-06T13:28:11.491Z,31.00
2022-09-06T13:31:19.865Z,31.15
2022-09-06T13:34:04.996Z,31.02
2022-09-06T13:36:53.210Z,30.58
2022-09-06T13:39:43.227Z,30.79
2022-09-06T13:42:29.562Z,30.31
2022-09-06T13:45:21.380Z,29.76
2022-09-06T13:48:26.254Z,29.89
2022-09-06T13:51:11.819Z,29.17
2022-09-06T13:54:08.725Z,29.05
2022-09-06T13:56:54.176Z,28.98
2022-09-06T13:59:39.541Z,28.69
2022-09-06T14:02:25.112Z,28.85
2022-09-06T14:05:10.417Z,28.66
2022-09-06T14:07:55.517Z,28.87
2022-09-06T14:10:41.197Z,29.14
2022-09-06T14:13:26.379Z,29.38
2022-09-06T14:16:12.536Z,29.50
2022-09-06T14:18:57.951Z,29.57
2022-09-06T14:21:43.445Z,29.58
2022-09-06T14:24:28.763Z,29.74
2022-09-06T14:27:14.103Z,29.87
2022-09-06T14:29:59.680Z,29.85
2022-09-06T14:32:44.899Z,29.69
2022-09-06T14:35:33.915Z,29.84
2022-09-06T14:38:18.916Z,29.60
2022-09-06T14:41:05.522Z,29.73
2022-09-06T14:43:54.452Z,30.04
2022-09-06T14:46:40.127Z,30.06
2022-09-06T14:49:25.439Z,29.89
2022-09-06T14:52:10.921Z,29.91
2022-09-06T14:54:56.265Z,29.77
2022-09-06T14:57:41.293Z,29.78
2022-09-06T15:00:26.745Z,29.68
2022-09-06T15:03:12.117Z,29.71
2022-09-06T15:05:57.172Z,29.68
2022-09-06T15:08:42.607Z,29.52
2022-09-06T15:11:27.828Z,29.44
2022-09-06T15:14:23.842Z,29.52
2022-09-06T15:17:09.398Z,30.07
2022-09-06T15:19:54.750Z,30.07
2022-09-06T15:22:40.121Z,30.14
2022-09-06T15:25:25.500Z,30.07
2022-09-06T15:28:10.369Z,29.89
2022-09-06T15:30:55.885Z,29.82
2022-09-06T15:33:41.597Z,29.96
2022-09-06T15:36:27.207Z,29.90
2022-09-06T15:39:12.466Z,30.14
2022-09-06T15:41:58.240Z,29.81
2022-09-06T15:44:43.200Z,29.90
2022-09-06T15:47:28.793Z,29.58
2022-09-06T15:50:21.950Z,29.59
2022-09-06T15:53:14.554Z,29.61
2022-09-06T15:56:00.521Z,29.61
2022-09-06T15:58:46.036Z,29.80
2022-09-06T16:01:31.114Z,29.94
2022-09-06T16:04:16.145Z,30.00
2022-09-06T16:07:01.050Z,30.08
2022-09-06T16:09:46.616Z,29.98
2022-09-06T16:12:31.555Z,30.09
2022-09-06T16:15:16.951Z,30.33
2022-09-06T16:18:02.385Z,30.17
2022-09-06T16:20:47.786Z,30.17
2022-09-06T16:23:32.998Z,29.78
2022-09-06T16:26:21.590Z,29.50
2022-09-06T16:29:08.398Z,29.41
2022-09-06T16:31:53.957Z,29.49
2022-09-06T16:34:38.881Z,29.50
2022-09-06T16:37:24.019Z,29.64
2022-09-06T16:40:09.626Z,29.81
2022-09-06T16:42:54.959Z,29.68
2022-09-06T16:45:40.460Z,29.69
2022-09-06T16:48:26.640Z,29.83
2022-09-06T16:51:17.504Z,29.63
2022-09-06T16:54:02.768Z,29.62
2022-09-06T16:56:48.492Z,29.79
2022-09-06T16:59:33.692Z,29.46
2022-09-06T17:02:19.153Z,29.25
2022-09-06T17:05:05.449Z,28.73
2022-09-06T17:07:50.821Z,28.46
2022-09-06T17:10:38.522Z,28.39
2022-09-06T17:13:23.971Z,28.35
2022-09-06T17:16:09.797Z,28.24
2022-09-06T17:18:55.269Z,28.22
2022-09-06T17:21:40.520Z,28.38
2022-09-06T17:24:28.945Z,28.20
2022-09-06T17:27:14.181Z,28.32
2022-09-06T17:29:59.486Z,28.05
2022-09-06T17:32:44.487Z,27.82
2022-09-06T17:35:29.917Z,27.65
2022-09-06T17:38:15.593Z,27.36
2022-09-06T17:41:01.299Z,27.00
2022-09-06T17:43:46.779Z,26.89
2022-09-06T17:46:32.293Z,26.68
2022-09-06T17:49:17.983Z,26.57
2022-09-06T17:52:03.320Z,26.59
2022-09-06T17:54:48.440Z,26.22
2022-09-06T17:57:33.779Z,26.46
2022-09-06T18:00:19.188Z,26.27
2022-09-06T18:03:04.532Z,26.35
2022-09-06T18:05:50.055Z,26.52
2022-09-06T18:08:36.107Z,26.32
2022-09-06T18:11:21.350Z,26.33
2022-09-06T18:14:12.349Z,26.28
2022-09-06T18:16:57.560Z,26.39
2022-09-06T18:19:42.888Z,26.43
2022-09-06T18:22:28.241Z,26.42
2022-09-06T18:25:13.696Z,26.41
2022-09-06T18:27:59.028Z,26.33
2022-09-06T18:30:44.384Z,26.25
2022-09-06T18:33:30.055Z,26.32
2022-09-06T18:36:15.662Z,26.27
2022-09-06T18:39:02.151Z,26.33
2022-09-06T18:41:47.466Z,26.31
2022-09-06T18:44:34.319Z,25.91
2022-09-06T18:47:19.913Z,25.94
2022-09-06T18:50:05.641Z,26.01
2022-09-06T18:52:51.157Z,25.71
2022-09-06T18:55:38.023Z,25.59
2022-09-06T18:58:23.295Z,25.34
2022-09-06T19:01:11.765Z,25.25
2022-09-06T19:03:58.324Z,25.33
2022-09-06T19:06:44.538Z,25.29
2022-09-06T19:09:29.526Z,25.21
2022-09-06T19:12:15.006Z,25.23
2022-09-06T19:14:59.980Z,25.20
2022-09-06T19:17:48.306Z,25.14
2022-09-06T19:20:33.728Z,24.91
2022-09-06T19:23:19.082Z,24.96
2022-09-06T19:26:09.557Z,25.02
2022-09-06T19:29:00.172Z,24.96
2022-09-06T19:31:46.476Z,24.84
2022-09-06T19:34:32.364Z,24.72
2022-09-06T19:37:17.512Z,24.63
2022-09-06T19:40:03.567Z,24.63
2022-09-06T19:42:48.730Z,24.45
2022-09-06T19:45:38.696Z,24.29
2022-09-06T19:48:24.046Z,24.33
2022-09-06T19:51:10.069Z,24.38
2022-09-06T19:53:56.584Z,24.29
2022-09-06T19:56:42.212Z,24.17
2022-09-06T19:59:27.803Z,24.14
2022-09-06T20:02:13.168Z,24.31
2022-09-06T20:04:58.421Z,24.29
2022-09-06T20:07:43.899Z,24.13
2022-09-06T20:10:29.437Z,24.11
2022-09-06T20:13:14.636Z,24.10
2022-09-06T20:15:59.584Z,24.14
2022-09-06T20:18:45.248Z,24.15
2022-09-06T20:21:31.248Z,24.06
2022-09-06T20:24:16.589Z,23.97
2022-09-06T20:27:01.946Z,23.88
2022-09-06T20:29:47.234Z,23.94
2022-09-06T20:32:32.405Z,23.91
2022-09-06T20:35:17.592Z,23.84
2022-09-06T20:38:03.004Z,23.86
2022-09-06T20:40:48.303Z,23.75
2022-09-06T20:43:35.116Z,23.66
2022-09-06T20:46:22.598Z,23.58
2022-09-06T20:49:07.741Z,23.75
2022-09-06T20:51:53.087Z,23.66
2022-09-06T20:54:38.294Z,23.75
2022-09-06T20:57:23.415Z,23.62
2022-09-06T21:00:13.728Z,23.62
2022-09-06T21:02:59.498Z,23.63
2022-09-06T21:05:44.804Z,23.51
2022-09-06T21:08:34.451Z,23.55
2022-09-06T21:11:20.754Z,23.59
2022-09-06T21:14:06.352Z,23.53
2022-09-06T21:16:51.673Z,23.47
2022-09-06T21:19:36.889Z,23.49
2022-09-06T21:22:22.176Z,23.53
2022-09-06T21:25:08.024Z,23.63
2022-09-06T21:27:55.748Z,23.65
2022-09-06T21:30:41.324Z,23.65
2022-09-06T21:33:28.643Z,23.58
2022-09-06T21:36:16.767Z,23.52
2022-09-06T21:39:05.844Z,23.62
2022-09-06T21:41:50.909Z,23.52
2022-09-06T21:44:36.658Z,23.65
2022-09-06T21:47:21.875Z,23.54
2022-09-06T21:50:07.432Z,23.51
2022-09-06T21:52:52.504Z,23.48
2022-09-06T21:55:37.977Z,23.30
2022-09-06T21:58:23.546Z,23.46
2022-09-06T22:01:08.985Z,23.52
2022-09-06T22:03:54.491Z,23.49
2022-09-06T22:06:39.694Z,23.39
2022-09-06T22:09:25.159Z,23.37
2022-09-06T22:12:10.328Z,23.44
2022-09-06T22:14:55.644Z,23.43
2022-09-06T22:17:41.242Z,23.26
2022-09-06T22:20:26.309Z,23.31
2022-09-06T22:23:11.713Z,23.17
2022-09-06T22:26:19.159Z,23.03
2022-09-06T22:29:06.822Z,22.99
2022-09-06T22:31:52.264Z,23.03
2022-09-06T22:34:37.348Z,22.72
2022-09-06T22:37:22.741Z,22.76
2022-09-06T22:40:08.954Z,22.68
2022-09-06T22:42:53.985Z,22.81
2022-09-06T22:45:39.334Z,22.82
2022-09-06T22:48:24.789Z,22.87
2022-09-06T22:51:10.072Z,22.75
2022-09-06T22:53:55.471Z,22.85
2022-09-06T22:56:41.335Z,22.74
2022-09-06T22:59:26.836Z,22.79
2022-09-06T23:02:11.919Z,22.62
2022-09-06T23:04:57.263Z,22.64
2022-09-06T23:07:42.616Z,22.78
2022-09-06T23:10:29.087Z,22.78
2022-09-06T23:13:15.937Z,22.72
2022-09-06T23:16:06.658Z,22.59
2022-09-06T23:18:51.968Z,22.58
2022-09-06T23:36:40.260Z,22.15
2022-09-06T23:39:29.183Z,22.20
2022-09-06T23:42:14.861Z,22.29
2022-09-06T23:45:00.082Z,22.34
2022-09-06T23:47:45.541Z,22.33
2022-09-06T23:50:30.816Z,22.32
2022-09-06T23:53:17.431Z,22.32
2022-09-06T23:56:03.495Z,22.19
2022-09-06T23:58:48.615Z,22.20
